createdAt,value
2018-12-24T00:01:51.162Z,10.90
2018-12-24T00:04:22.331Z,10.60
2018-12-24T00:06:55.394Z,10.60
2018-12-24T00:09:28.272Z,10.60
2018-12-24T00:12:06.963Z,10.60
2018-12-24T00:14:37.032Z,10.70
2018-12-24T00:17:09.727Z,10.80
2018-12-24T00:19:43.702Z,10.60
2018-12-24T00:22:16.074Z,10.60
2018-12-24T00:24:46.906Z,11.00
2018-12-24T00:27:20.413Z,10.80
2018-12-24T00:29:53.564Z,10.80
2018-12-24T00:32:26.100Z,10.90
2018-12-24T00:34:56.928Z,10.50
2018-12-24T00:37:29.335Z,10.60
2018-12-24T00:40:00.162Z,10.80
2018-12-24T00:42:32.228Z,10.50
2018-12-24T00:45:07.734Z,10.60
2018-12-24T00:47:40.823Z,10.70
2018-12-24T00:50:13.406Z,10.80
2018-12-24T00:52:45.794Z,10.70
2018-12-24T00:55:19.124Z,10.40
2018-12-24T00:57:50.324Z,10.70
2018-12-24T01:00:23.426Z,10.50
2018-12-24T01:02:55.467Z,10.60
2018-12-24T01:05:27.818Z,10.70
2018-12-24T01:07:58.995Z,10.50
2018-12-24T01:10:33.129Z,10.70
2018-12-24T01:13:05.790Z,11.00
2018-12-24T01:15:38.994Z,10.90
2018-12-24T01:18:13.418Z,10.80
2018-12-24T01:20:44.225Z,10.80
2018-12-24T01:23:18.263Z,10.70
2018-12-24T01:25:50.834Z,11.00
2018-12-24T01:28:23.365Z,10.90
2018-12-24T01:30:56.374Z,10.70
2018-12-24T01:33:28.845Z,10.90
2018-12-24T01:36:01.981Z,10.70
2018-12-24T01:38:32.817Z,10.90
2018-12-24T01:41:04.747Z,10.60
2018-12-24T01:43:36.538Z,10.70
2018-12-24T01:46:07.366Z,10.80
2018-12-24T01:48:38.615Z,10.90
2018-12-24T01:51:10.851Z,10.70
2018-12-24T01:53:42.428Z,10.70
2018-12-24T01:56:13.237Z,11.10
2018-12-24T01:58:45.109Z,10.90
2018-12-24T02:01:15.923Z,10.70
2018-12-24T02:03:47.661Z,10.90
2018-12-24T02:06:20.386Z,10.60
2018-12-24T02:08:53.208Z,10.60
2018-12-24T02:11:24.964Z,10.60
2018-12-24T02:13:58.179Z,10.60
2018-12-24T02:16:32.972Z,10.70
2018-12-24T02:19:06.284Z,10.80
2018-12-24T02:21:38.398Z,10.90
2018-12-24T02:24:10.601Z,10.50
2018-12-24T02:26:41.853Z,10.60
2018-12-24T02:29:12.670Z,10.60
2018-12-24T02:31:44.791Z,10.70
2018-12-24T02:34:18.219Z,10.70
2018-12-24T02:36:51.738Z,10.60
2018-12-24T02:39:22.970Z,10.60
2018-12-24T02:41:56.720Z,10.60
2018-12-24T02:44:31.123Z,10.40
2018-12-24T02:47:03.061Z,10.50
2018-12-24T02:49:35.190Z,10.60
2018-12-24T02:52:06.583Z,10.60
2018-12-24T02:54:37.472Z,10.50
2018-12-24T02:57:08.371Z,10.20
2018-12-24T02:59:41.371Z,10.50
2018-12-24T03:02:13.707Z,10.30
2018-12-24T03:04:44.511Z,10.70
2018-12-24T03:07:15.625Z,10.50
2018-12-24T03:09:47.410Z,10.40
2018-12-24T03:12:18.833Z,10.50
2018-12-24T03:14:49.604Z,10.60
2018-12-24T03:17:21.117Z,10.60
2018-12-24T03:19:51.916Z,10.40
2018-12-24T03:22:22.725Z,10.30
2018-12-24T03:24:53.507Z,10.00
2018-12-24T03:27:24.663Z,9.30
2018-12-24T03:29:55.847Z,8.80
2018-12-24T03:32:28.232Z,8.10
2018-12-24T03:34:59.102Z,8.00
2018-12-24T03:37:30.274Z,8.00
2018-12-24T03:40:01.418Z,7.70
2018-12-24T03:42:33.784Z,7.80
2018-12-24T03:45:04.592Z,7.80
2018-12-24T03:47:35.985Z,7.70
2018-12-24T03:50:07.430Z,7.80
2018-12-24T03:52:39.425Z,7.70
2018-12-24T03:55:10.298Z,7.70
2018-12-24T03:57:42.377Z,7.60
2018-12-24T04:00:13.848Z,7.40
2018-12-24T04:02:45.676Z,7.40
2018-12-24T04:05:17.480Z,7.60
2018-12-24T04:07:49.742Z,7.40
2018-12-24T04:10:20.531Z,7.70
2018-12-24T04:12:52.062Z,7.20
2018-12-24T04:15:22.934Z,7.40
2018-12-24T04:17:54.007Z,7.50
2018-12-24T04:20:25.767Z,7.40
2018-12-24T04:22:56.855Z,7.40
2018-12-24T04:25:27.968Z,7.30
2018-12-24T04:27:59.410Z,7.60
2018-12-24T04:30:30.192Z,7.50
2018-12-24T04:33:02.211Z,7.50
2018-12-24T04:35:33.657Z,7.50
2018-12-24T04:38:04.484Z,7.20
2018-12-24T04:40:38.015Z,7.20
2018-12-24T04:43:09.775Z,7.00
2018-12-24T04:45:41.330Z,6.80
2018-12-24T04:48:14.856Z,6.90
2018-12-24T04:50:46.060Z,7.10
2018-12-24T04:53:17.880Z,6.90
2018-12-24T04:55:50.777Z,6.80
2018-12-24T04:58:21.605Z,6.60
2018-12-24T05:00:52.341Z,6.40
2018-12-24T05:03:24.645Z,6.40
2018-12-24T05:05:57.005Z,6.30
2018-12-24T05:08:28.061Z,6.20
2018-12-24T05:10:59.387Z,6.50
2018-12-24T05:13:30.557Z,6.30
2018-12-24T05:16:01.713Z,6.20
2018-12-24T05:18:34.067Z,6.30
2018-12-24T05:21:05.224Z,6.20
2018-12-24T05:23:36.668Z,6.40
2018-12-24T05:26:07.444Z,6.20
2018-12-24T05:28:38.128Z,6.20
2018-12-24T05:31:08.862Z,6.30
2018-12-24T05:33:41.781Z,6.10
2018-12-24T05:36:12.528Z,6.20
2018-12-24T05:38:43.305Z,6.20
2018-12-24T05:41:14.484Z,6.00
2018-12-24T05:43:49.388Z,6.20
2018-12-24T05:46:18.111Z,6.10
2018-12-24T05:48:48.919Z,6.20
2018-12-24T05:51:19.814Z,6.20
2018-12-24T05:53:50.667Z,5.90
2018-12-24T05:56:21.755Z,5.90
2018-12-24T05:58:53.850Z,5.70
2018-12-24T06:01:24.800Z,5.90
2018-12-24T06:03:56.570Z,5.80
2018-12-24T06:06:30.392Z,5.60
2018-12-24T06:09:01.173Z,5.60
2018-12-24T06:11:32.612Z,5.20
2018-12-24T06:14:03.386Z,5.40
2018-12-24T06:16:34.162Z,5.10
2018-12-24T06:19:06.251Z,5.10
2018-12-24T06:21:37.143Z,5.00
2018-12-24T06:24:07.908Z,5.00
2018-12-24T06:26:38.685Z,5.30
2018-12-24T06:29:09.794Z,5.20
2018-12-24T06:31:40.960Z,5.00
2018-12-24T06:34:12.106Z,5.00
2018-12-24T06:36:43.251Z,5.10
2018-12-24T06:39:14.696Z,5.20
2018-12-24T06:41:45.850Z,5.10
2018-12-24T06:44:18.011Z,5.10
2018-12-24T06:46:49.169Z,5.10
2018-12-24T06:49:19.953Z,5.10
2018-12-24T06:51:52.017Z,5.00
2018-12-24T06:54:24.042Z,5.00
2018-12-24T06:56:55.066Z,4.90
2018-12-24T06:59:25.847Z,5.20
2018-12-24T07:01:56.694Z,5.00
2018-12-24T07:04:28.186Z,5.20
2018-12-24T07:06:58.966Z,5.00
2018-12-24T07:09:30.747Z,5.10
2018-12-24T07:12:01.833Z,5.00
2018-12-24T07:14:32.597Z,5.10
2018-12-24T07:17:03.717Z,5.10
2018-12-24T07:19:35.789Z,5.00
2018-12-24T07:22:07.574Z,5.20
2018-12-24T07:24:38.338Z,4.90
2018-12-24T07:27:09.144Z,5.00
2018-12-24T07:29:40.553Z,4.90
2018-12-24T07:32:11.693Z,5.10
2018-12-24T07:34:43.927Z,5.10
2018-12-24T07:37:15.111Z,4.90
2018-12-24T07:39:47.400Z,5.00
2018-12-24T07:42:19.550Z,5.30
2018-12-24T07:44:50.893Z,5.10
2018-12-24T07:47:21.946Z,5.10
2018-12-24T07:49:53.019Z,5.10
2018-12-24T07:52:24.138Z,5.00
2018-12-24T07:54:56.181Z,5.00
2018-12-24T07:57:28.779Z,5.10
2018-12-24T08:00:13.534Z,5.10
2018-12-24T08:02:45.677Z,5.00
2018-12-24T08:05:18.608Z,5.00
2018-12-24T08:07:50.383Z,5.00
2018-12-24T08:10:22.024Z,5.10
2018-12-24T08:12:54.240Z,5.10
2018-12-24T08:15:25.419Z,5.40
2018-12-24T08:17:56.214Z,5.50
2018-12-24T08:20:29.653Z,5.10
2018-12-24T08:23:00.428Z,5.70
2018-12-24T08:25:32.286Z,5.30
2018-12-24T08:28:03.182Z,5.30
2018-12-24T08:30:34.018Z,5.30
2018-12-24T08:33:04.789Z,5.20
2018-12-24T08:35:35.839Z,5.30
2018-12-24T08:38:06.768Z,5.60
2018-12-24T08:40:38.806Z,5.70
2018-12-24T08:43:09.609Z,5.30
2018-12-24T08:45:41.491Z,5.40
2018-12-24T08:48:23.353Z,5.20
2018-12-24T08:50:54.169Z,5.60
2018-12-24T08:53:25.432Z,5.20
2018-12-24T08:55:56.235Z,5.10
2018-12-24T08:58:28.431Z,5.50
2018-12-24T09:00:59.213Z,5.40
2018-12-24T09:03:31.261Z,5.30
2018-12-24T09:06:02.456Z,5.00
2018-12-24T09:08:33.347Z,5.60
2018-12-24T09:11:04.162Z,5.30
2018-12-24T09:13:35.374Z,5.30
2018-12-24T09:16:06.180Z,5.10
2018-12-24T09:18:37.009Z,5.50
2018-12-24T09:21:09.907Z,5.30
2018-12-24T09:23:42.190Z,5.20
2018-12-24T09:26:13.010Z,5.30
2018-12-24T09:28:46.222Z,5.30
2018-12-24T09:31:17.692Z,5.50
2018-12-24T09:33:48.921Z,5.60
2018-12-24T09:36:19.974Z,5.60
2018-12-24T09:38:51.534Z,5.60
2018-12-24T09:41:23.534Z,5.30
2018-12-24T09:43:55.195Z,5.50
2018-12-24T09:46:25.969Z,5.50
2018-12-24T09:48:57.086Z,5.40
2018-12-24T09:51:27.940Z,5.60
2018-12-24T09:53:59.298Z,5.80
2018-12-24T09:56:30.153Z,6.00
2018-12-24T09:59:02.289Z,5.70
2018-12-24T10:01:34.060Z,5.80
2018-12-24T10:04:16.403Z,5.80
2018-12-24T10:06:47.526Z,5.90
2018-12-24T10:11:34.482Z,6.00
2018-12-24T10:14:06.738Z,6.00
2018-12-24T10:16:42.695Z,5.90
2018-12-24T10:19:18.133Z,5.80
2018-12-24T10:21:49.134Z,6.20
2018-12-24T10:24:25.043Z,6.10
2018-12-24T10:26:56.468Z,6.30
2018-12-24T10:29:27.625Z,6.20
2018-12-24T10:31:59.578Z,6.50
2018-12-24T10:34:30.664Z,6.20
2018-12-24T10:37:01.460Z,6.40
2018-12-24T10:39:32.921Z,6.50
2018-12-24T10:42:04.565Z,6.50
2018-12-24T10:44:36.822Z,6.50
2018-12-24T10:47:09.949Z,6.70
2018-12-24T10:49:41.201Z,6.40
2018-12-24T10:52:13.973Z,6.50
2018-12-24T10:54:45.535Z,6.40
2018-12-24T10:57:15.860Z,6.30
2018-12-24T10:59:46.195Z,6.20
2018-12-24T11:02:16.897Z,6.70
2018-12-24T11:04:47.377Z,6.70
2018-12-24T11:07:18.677Z,6.80
2018-12-24T11:09:50.899Z,6.90
2018-12-24T11:12:21.310Z,6.40
2018-12-24T11:14:52.440Z,6.40
2018-12-24T11:17:23.129Z,6.80
2018-12-24T11:19:53.800Z,6.50
2018-12-24T11:22:24.204Z,6.90
2018-12-24T11:24:55.244Z,6.70
2018-12-24T11:27:25.891Z,6.90
2018-12-24T11:29:56.610Z,6.60
2018-12-24T11:32:28.486Z,6.70
2018-12-24T11:34:58.828Z,7.10
2018-12-24T11:37:30.382Z,6.80
2018-12-24T11:40:01.517Z,6.90
2018-12-24T11:42:32.905Z,7.10
2018-12-24T11:45:03.095Z,7.40
2018-12-24T11:47:33.914Z,7.40
2018-12-24T11:50:04.700Z,7.10
2018-12-24T11:52:36.176Z,7.30
2018-12-24T11:55:09.552Z,7.30
2018-12-24T11:57:41.045Z,7.10
2018-12-24T12:00:11.393Z,7.10
2018-12-24T12:02:42.007Z,7.10
2018-12-24T12:05:12.336Z,7.00
2018-12-24T12:07:45.501Z,7.20
2018-12-24T12:10:17.184Z,7.20
2018-12-24T12:12:50.410Z,7.30
2018-12-24T12:15:22.714Z,7.10
2018-12-24T12:17:57.448Z,7.10
2018-12-24T12:20:28.418Z,7.40
2018-12-24T12:22:58.807Z,7.20
2018-12-24T12:25:33.543Z,7.20
2018-12-24T12:28:06.638Z,7.10
2018-12-24T12:30:37.443Z,7.00
2018-12-24T12:33:11.192Z,7.10
2018-12-24T12:35:44.961Z,7.40
2018-12-24T12:38:15.309Z,7.20
2018-12-24T12:40:46.525Z,7.30
2018-12-24T12:43:17.239Z,7.30
2018-12-24T12:45:51.358Z,7.10
2018-12-24T12:48:21.357Z,7.20
2018-12-24T12:50:54.426Z,6.90
2018-12-24T12:53:25.416Z,6.90
2018-12-24T12:55:56.115Z,7.20
2018-12-24T12:58:30.442Z,7.50
2018-12-24T13:01:01.723Z,7.50
2018-12-24T13:03:33.148Z,7.60
2018-12-24T13:06:04.583Z,7.10
2018-12-24T13:08:34.884Z,6.70
2018-12-24T13:11:06.270Z,6.80
2018-12-24T13:13:37.899Z,6.50
2018-12-24T13:16:09.581Z,6.20
2018-12-24T13:18:40.590Z,6.50
2018-12-24T13:21:13.413Z,6.10
2018-12-24T13:23:47.419Z,6.30
2018-12-24T13:26:18.038Z,6.60
2018-12-24T13:28:48.371Z,6.20
2018-12-24T13:31:20.850Z,5.90
2018-12-24T13:33:51.582Z,6.30
2018-12-24T13:36:22.309Z,6.10
2018-12-24T13:38:54.485Z,6.20
2018-12-24T13:41:24.793Z,5.90
2018-12-24T13:43:57.576Z,6.20
2018-12-24T13:46:29.376Z,6.30
2018-12-24T13:49:01.094Z,6.10
2018-12-24T13:51:31.742Z,6.20
2018-12-24T13:54:02.482Z,6.30
2018-12-24T13:56:33.208Z,6.00
2018-12-24T13:59:05.636Z,6.30
2018-12-24T14:01:37.093Z,6.10
2018-12-24T14:04:09.869Z,6.50
2018-12-24T14:06:43.830Z,6.50
2018-12-24T14:09:16.045Z,6.20
2018-12-24T14:11:46.744Z,6.10
2018-12-24T14:14:18.736Z,6.00
2018-12-24T14:16:52.829Z,6.20
2018-12-24T14:19:24.763Z,6.00
2018-12-24T14:21:56.980Z,5.80
2018-12-24T14:24:27.690Z,5.90
2018-12-24T14:26:58.043Z,6.00
2018-12-24T14:29:28.457Z,5.90
2018-12-24T14:31:59.167Z,5.70
2018-12-24T14:34:30.930Z,5.60
2018-12-24T14:37:01.966Z,5.60
2018-12-24T14:39:32.514Z,5.40
2018-12-24T14:42:04.398Z,5.30
2018-12-24T14:44:35.514Z,5.60
2018-12-24T14:47:06.302Z,5.40
2018-12-24T14:49:40.867Z,5.60
2018-12-24T14:52:11.543Z,5.40
2018-12-24T14:54:43.888Z,5.40
2018-12-24T14:57:15.444Z,5.20
2018-12-24T14:59:45.820Z,5.40
2018-12-24T15:02:17.032Z,5.30
2018-12-24T15:04:49.993Z,5.70
2018-12-24T15:07:20.918Z,5.60
2018-12-24T15:09:53.730Z,5.60
2018-12-24T15:12:27.057Z,5.90
2018-12-24T15:15:01.885Z,5.50
2018-12-24T15:17:33.228Z,5.80
2018-12-24T15:20:03.909Z,5.70
2018-12-24T15:22:34.652Z,5.50
2018-12-24T15:25:05.152Z,5.50
2018-12-24T15:27:36.328Z,5.70
2018-12-24T15:30:08.249Z,5.50
2018-12-24T15:32:38.920Z,5.50
2018-12-24T15:35:10.678Z,5.60
2018-12-24T15:37:41.181Z,5.30
2018-12-24T15:40:15.316Z,5.20
2018-12-24T15:42:46.642Z,5.50
2018-12-24T15:45:18.130Z,5.20
2018-12-24T15:47:50.152Z,5.20
2018-12-24T15:50:20.941Z,5.10
2018-12-24T15:52:51.864Z,5.50
2018-12-24T15:55:22.364Z,5.20
2018-12-24T15:57:55.021Z,5.30
2018-12-24T16:00:25.418Z,5.20
2018-12-24T16:02:57.168Z,5.20
2018-12-24T16:05:31.985Z,5.10
2018-12-24T16:08:03.964Z,5.40
2018-12-24T16:10:34.520Z,5.20
2018-12-24T16:13:07.102Z,5.10
2018-12-24T16:15:37.534Z,5.00
2018-12-24T16:18:09.694Z,5.30
2018-12-24T16:20:41.416Z,5.00
2018-12-24T16:23:13.746Z,5.00
2018-12-24T16:25:44.523Z,4.90
2018-12-24T16:28:17.419Z,5.00
2018-12-24T16:30:48.903Z,4.90
